<?xml version="1.0" encoding="UTF-8" standalone="no" ?>
<gpx xmlns="http://www.topografix.com/GPX/1/1" xmlns:xsi="http://www.w3.org/2001/XMLSchema-instance" xsi:schemaLocation="http://www.topografix.com/GPX/1/1 http://www.topografix.com/GPX/1/1/gpx.xsd" version="1.1" creator="VisuGPX - https://www.visugpx.com">
  <metadata>
    <name>ND Hermitage Forez 10</name>
  </metadata>
  <trk>
    <name><![CDATA[ND Hermitage Forez 10]]></name>
    <trkseg>
      <trkpt lat="45.79147" lon="3.71737">
        <ele>1110</ele>
        <time>2020-05-28T19:28:23+02:00</time>
      </trkpt>
      <trkpt lat="45.78599" lon="3.71591">
        <ele>1130</ele>
        <time>2020-05-28T19:28:28+02:00</time>
      </trkpt>
      <trkpt lat="45.78416" lon="3.71432">
        <ele>1170</ele>
        <time>2020-05-28T19:28:33+02:00</time>
      </trkpt>
      <trkpt lat="45.77982" lon="3.71462">
        <ele>1199</ele>
        <time>2020-05-28T19:28:38+02:00</time>
      </trkpt>
      <trkpt lat="45.7783" lon="3.71321">
        <ele>1182</ele>
        <time>2020-05-28T19:28:43+02:00</time>
      </trkpt>
      <trkpt lat="45.77785" lon="3.70848">
        <ele>1145</ele>
        <time>2020-05-28T19:28:48+02:00</time>
      </trkpt>
      <trkpt lat="45.77848" lon="3.70342">
        <ele>1100</ele>
        <time>2020-05-28T19:28:53+02:00</time>
      </trkpt>
      <trkpt lat="45.78096" lon="3.70235">
        <ele>1086</ele>
        <time>2020-05-28T19:28:58+02:00</time>
      </trkpt>
      <trkpt lat="45.78075" lon="3.70016">
        <ele>1068</ele>
        <time>2020-05-28T19:29:03+02:00</time>
      </trkpt>
      <trkpt lat="45.77905" lon="3.69994">
        <ele>1050</ele>
        <time>2020-05-28T19:29:08+02:00</time>
      </trkpt>
      <trkpt lat="45.78147" lon="3.69767">
        <ele>1048</ele>
        <time>2020-05-28T19:29:13+02:00</time>
      </trkpt>
      <trkpt lat="45.78288" lon="3.69561">
        <ele>1029</ele>
        <time>2020-05-28T19:29:18+02:00</time>
      </trkpt>
      <trkpt lat="45.7838" lon="3.69561">
        <ele>1027</ele>
        <time>2020-05-28T19:29:23+02:00</time>
      </trkpt>
      <trkpt lat="45.78416" lon="3.6975">
        <ele>1036</ele>
        <time>2020-05-28T19:29:28+02:00</time>
      </trkpt>
      <trkpt lat="45.78389" lon="3.69939">
        <ele>1030</ele>
        <time>2020-05-28T19:29:33+02:00</time>
      </trkpt>
      <trkpt lat="45.78548" lon="3.69793">
        <ele>1005</ele>
        <time>2020-05-28T19:29:38+02:00</time>
      </trkpt>
      <trkpt lat="45.78988" lon="3.6987">
        <ele>1027</ele>
        <time>2020-05-28T19:29:43+02:00</time>
      </trkpt>
      <trkpt lat="45.79114" lon="3.70359">
        <ele>1079</ele>
        <time>2020-05-28T19:29:48+02:00</time>
      </trkpt>
      <trkpt lat="45.79182" lon="3.70604">
        <ele>1081</ele>
        <time>2020-05-28T19:29:53+02:00</time>
      </trkpt>
      <trkpt lat="45.79156" lon="3.70921">
        <ele>1123</ele>
        <time>2020-05-28T19:29:58+02:00</time>
      </trkpt>
      <trkpt lat="45.79141" lon="3.71363">
        <ele>1131</ele>
        <time>2020-05-28T19:30:03+02:00</time>
      </trkpt>
      <trkpt lat="45.79144" lon="3.71732">
        <ele>1111</ele>
        <time>2020-05-28T19:30:08+02:00</time>
      </trkpt>
    </trkseg>
  </trk>
</gpx>